createdAt,value
2023-02-03T00:00:09.608Z,2.33
2023-02-03T00:02:40.382Z,1.77
2023-02-03T00:05:09.693Z,1.53
2023-02-03T00:07:38.213Z,1.23
2023-02-03T00:10:07.063Z,1.23
2023-02-03T00:12:35.345Z,0.90
2023-02-03T00:15:03.504Z,1.70
2023-02-03T00:17:33.438Z,0.83
2023-02-03T00:20:01.587Z,1.33
2023-02-03T00:22:29.850Z,2.27
2023-02-03T00:24:57.989Z,1.30
2023-02-03T00:27:26.222Z,1.70
2023-02-03T00:29:54.435Z,1.00
2023-02-03T00:32:22.982Z,1.40
2023-02-03T00:34:52.659Z,1.10
2023-02-03T00:37:21.540Z,1.00
2023-02-03T00:39:49.683Z,1.17
2023-02-03T00:42:17.881Z,1.17
2023-02-03T00:44:46.360Z,2.07
2023-02-03T00:47:14.517Z,1.67
2023-02-03T00:49:42.723Z,1.50
2023-02-03T00:52:12.869Z,1.80
2023-02-03T00:54:41.035Z,1.50
2023-02-03T00:57:09.538Z,1.83
2023-02-03T00:59:37.714Z,2.00
2023-02-03T01:02:05.964Z,1.90
2023-02-03T01:04:34.307Z,2.00
2023-02-03T01:07:02.438Z,1.93
2023-02-03T01:09:34.633Z,1.93
2023-02-03T01:12:03.056Z,2.37
2023-02-03T01:14:31.279Z,2.20
2023-02-03T01:16:59.609Z,2.20
2023-02-03T01:19:27.828Z,2.10
2023-02-03T01:21:55.957Z,2.27
2023-02-03T01:24:24.381Z,2.13
2023-02-03T01:26:53.964Z,2.50
2023-02-03T01:29:22.191Z,2.37
2023-02-03T01:31:51.293Z,2.60
2023-02-03T01:34:19.557Z,2.60
2023-02-03T01:36:48.033Z,2.90
2023-02-03T01:39:16.766Z,3.03
2023-02-03T01:41:47.169Z,2.50
2023-02-03T01:44:41.711Z,2.63
2023-02-03T01:47:17.589Z,2.77
2023-02-03T01:49:47.956Z,2.77
2023-02-03T01:52:16.434Z,3.37
2023-02-03T01:54:45.706Z,4.93
2023-02-03T01:57:18.528Z,2.73
2023-02-03T01:59:48.188Z,2.67
2023-02-03T02:02:16.454Z,3.07
2023-02-03T02:04:51.543Z,3.73
2023-02-03T02:07:19.753Z,3.87
2023-02-03T02:09:47.919Z,3.20
2023-02-03T02:12:16.373Z,4.93
2023-02-03T02:14:44.583Z,3.53
2023-02-03T02:17:20.214Z,3.30
2023-02-03T02:20:07.360Z,5.83
2023-02-03T02:22:38.948Z,4.60
2023-02-03T02:25:23.907Z,4.43
2023-02-03T02:28:13.476Z,4.93
2023-02-03T02:30:48.507Z,4.90
2023-02-03T02:33:20.851Z,4.17
2023-02-03T02:35:56.998Z,5.07
2023-02-03T02:38:33.055Z,4.40
2023-02-03T02:41:04.244Z,5.33
2023-02-03T02:43:37.228Z,6.07
2023-02-03T02:46:09.948Z,6.77
2023-02-03T02:48:41.033Z,6.43
2023-02-03T02:51:09.813Z,5.17
2023-02-03T02:53:40.855Z,5.73
2023-02-03T02:56:11.791Z,8.70
2023-02-03T02:58:41.123Z,8.30
2023-02-03T03:01:09.988Z,5.93
2023-02-03T03:03:44.306Z,7.30
2023-02-03T03:06:16.892Z,7.30
2023-02-03T03:08:46.984Z,7.33
2023-02-03T03:11:15.508Z,6.57
2023-02-03T03:13:45.484Z,6.77
2023-02-03T03:16:13.963Z,6.77
2023-02-03T03:18:44.871Z,9.40
2023-02-03T03:21:15.539Z,7.73
2023-02-03T03:23:43.940Z,9.87
2023-02-03T03:26:14.956Z,7.70
2023-02-03T03:28:46.657Z,8.87
2023-02-03T03:31:14.976Z,8.40
2023-02-03T03:33:44.580Z,11.73
2023-02-03T03:36:15.876Z,11.17
2023-02-03T03:38:45.597Z,11.57
2023-02-03T03:41:16.146Z,11.43
2023-02-03T03:43:44.996Z,11.93
2023-02-03T03:46:14.675Z,15.83
2023-02-03T03:48:48.034Z,16.70
2023-02-03T03:51:19.327Z,12.60
2023-02-03T03:53:48.053Z,17.37
2023-02-03T03:56:18.777Z,14.33
2023-02-03T03:58:46.985Z,13.37
2023-02-03T04:01:15.490Z,12.33
2023-02-03T04:03:46.635Z,10.70
2023-02-03T04:06:15.130Z,12.43
2023-02-03T04:08:43.337Z,12.10
2023-02-03T04:11:11.547Z,11.90
2023-02-03T04:13:39.785Z,15.80
2023-02-03T04:16:08.364Z,12.57
2023-02-03T04:18:37.281Z,13.13
2023-02-03T04:21:07.371Z,16.83
2023-02-03T04:23:35.642Z,15.37
2023-02-03T04:26:03.840Z,12.27
2023-02-03T04:28:31.955Z,15.83
2023-02-03T04:31:01.928Z,13.63
2023-02-03T04:33:30.527Z,14.47
2023-02-03T04:35:58.912Z,13.60
2023-02-03T04:38:28.480Z,11.57
2023-02-03T04:40:56.679Z,12.23
2023-02-03T04:43:24.941Z,13.40
2023-02-03T04:45:53.171Z,13.97
2023-02-03T04:48:21.682Z,13.00
2023-02-03T04:50:49.897Z,12.53
2023-02-03T04:53:18.105Z,15.17
2023-02-03T04:55:49.438Z,17.63
2023-02-03T04:58:17.670Z,15.50
2023-02-03T05:00:45.962Z,16.63
2023-02-03T05:03:14.513Z,15.03
2023-02-03T05:05:42.762Z,14.53
2023-02-03T05:08:10.935Z,19.83
2023-02-03T05:10:39.122Z,14.33
2023-02-03T05:13:08.682Z,15.67
2023-02-03T05:15:37.143Z,12.37
2023-02-03T05:18:05.363Z,15.33
2023-02-03T05:20:33.598Z,15.10
2023-02-03T05:23:01.800Z,12.87
2023-02-03T05:25:30.021Z,15.50
2023-02-03T05:27:58.262Z,11.03
2023-02-03T05:30:28.405Z,13.80
2023-02-03T05:32:56.860Z,13.87
2023-02-03T05:35:25.018Z,13.90
2023-02-03T05:37:53.226Z,15.57
2023-02-03T05:40:38.817Z,12.70
2023-02-03T05:43:07.900Z,9.57
2023-02-03T05:45:37.545Z,9.83
2023-02-03T05:48:07.429Z,9.47
2023-02-03T05:50:38.351Z,9.27
2023-02-03T05:53:09.480Z,6.97
2023-02-03T05:55:37.891Z,9.70
2023-02-03T05:58:06.115Z,7.07
2023-02-03T06:00:34.313Z,6.73
2023-02-03T06:03:04.022Z,5.77
2023-02-03T06:05:35.348Z,7.70
2023-02-03T06:08:04.206Z,7.07
2023-02-03T06:10:32.719Z,6.93
2023-02-03T06:13:00.904Z,8.40
2023-02-03T06:15:29.140Z,5.87
2023-02-03T06:17:57.338Z,5.77
2023-02-03T06:20:27.132Z,5.30
2023-02-03T06:22:55.797Z,4.33
2023-02-03T06:25:24.432Z,6.90
2023-02-03T06:27:53.702Z,4.30
2023-02-03T06:30:23.927Z,4.03
2023-02-03T06:32:52.233Z,4.27
2023-02-03T06:35:20.423Z,6.10
2023-02-03T06:37:50.154Z,5.13
2023-02-03T06:40:18.407Z,4.70
2023-02-03T06:42:47.176Z,7.70
2023-02-03T06:45:15.558Z,4.33
2023-02-03T06:47:43.825Z,3.90
2023-02-03T06:50:14.021Z,5.20
2023-02-03T06:52:42.381Z,5.93
2023-02-03T06:55:12.164Z,4.40
2023-02-03T06:57:45.063Z,4.27
2023-02-03T07:00:17.483Z,4.20
2023-02-03T07:02:46.770Z,3.63
2023-02-03T07:05:15.020Z,5.00
2023-02-03T07:07:43.255Z,5.73
2023-02-03T07:10:12.961Z,4.30
2023-02-03T07:12:41.164Z,4.90
2023-02-03T07:15:10.558Z,3.60
2023-02-03T07:17:39.089Z,4.60
2023-02-03T07:20:07.779Z,7.43
2023-02-03T07:22:36.516Z,5.20
2023-02-03T07:25:04.894Z,5.97
2023-02-03T07:27:34.458Z,5.60
2023-02-03T07:30:02.645Z,6.77
2023-02-03T07:32:32.880Z,6.27
2023-02-03T07:35:02.388Z,6.90
2023-02-03T07:37:31.043Z,7.07
2023-02-03T07:39:59.223Z,5.90
2023-02-03T07:42:27.372Z,5.63
2023-02-03T07:44:58.748Z,8.33
2023-02-03T07:47:26.944Z,5.33
2023-02-03T07:49:55.171Z,6.23
2023-02-03T07:52:23.365Z,5.67
2023-02-03T07:54:51.526Z,6.70
2023-02-03T07:57:19.982Z,5.77
2023-02-03T07:59:48.164Z,4.40
2023-02-03T08:02:17.689Z,5.27
2023-02-03T08:04:45.934Z,4.07
2023-02-03T08:07:14.121Z,6.30
2023-02-03T08:09:42.425Z,5.43
2023-02-03T08:12:10.884Z,7.53
2023-02-03T08:14:39.098Z,7.37
2023-02-03T08:17:07.351Z,8.10
2023-02-03T08:19:36.976Z,4.73
2023-02-03T08:22:05.153Z,6.63
2023-02-03T08:24:33.608Z,7.10
2023-02-03T08:27:02.008Z,7.00
2023-02-03T08:29:30.213Z,7.23
2023-02-03T08:31:58.756Z,7.00
2023-02-03T08:34:27.150Z,5.77
2023-02-03T08:36:56.724Z,6.07
2023-02-03T08:39:25.434Z,7.07
2023-02-03T08:41:53.724Z,5.50
2023-02-03T08:44:21.909Z,6.23
2023-02-03T08:46:51.023Z,10.73
2023-02-03T08:49:19.345Z,4.87
2023-02-03T08:51:47.702Z,11.57
2023-02-03T08:54:17.305Z,8.40
2023-02-03T08:56:45.492Z,7.23
2023-02-03T08:59:14.144Z,4.80
2023-02-03T09:01:44.808Z,4.63
2023-02-03T09:04:13.396Z,7.67
2023-02-03T09:06:41.628Z,6.10
2023-02-03T09:09:10.529Z,5.03
2023-02-03T09:11:40.306Z,6.00
2023-02-03T09:14:08.545Z,9.40
2023-02-03T09:16:36.791Z,4.87
2023-02-03T09:19:05.226Z,7.10
2023-02-03T09:21:38.757Z,5.17
2023-02-03T09:24:09.038Z,6.10
2023-02-03T09:26:37.223Z,7.17
2023-02-03T09:29:07.312Z,4.87
2023-02-03T09:31:35.788Z,5.10
2023-02-03T09:34:04.372Z,4.97
2023-02-03T09:36:32.579Z,8.20
2023-02-03T09:39:00.791Z,5.30
2023-02-03T09:41:38.046Z,6.63
2023-02-03T09:44:09.439Z,7.57
2023-02-03T09:46:40.477Z,7.00
2023-02-03T09:49:13.282Z,8.40
2023-02-03T09:51:43.649Z,8.93
2023-02-03T09:54:17.143Z,6.30
2023-02-03T09:56:51.232Z,6.77
2023-02-03T09:59:20.842Z,8.27
2023-02-03T10:01:54.232Z,8.83
2023-02-03T10:04:29.241Z,6.70
2023-02-03T10:07:03.046Z,6.50
2023-02-03T10:09:37.689Z,7.20
2023-02-03T10:12:22.451Z,7.23
2023-02-03T10:14:58.428Z,5.73
2023-02-03T10:17:30.603Z,6.80
2023-02-03T10:20:02.797Z,6.30
2023-02-03T10:22:32.036Z,5.23
2023-02-03T10:25:02.336Z,4.63
2023-02-03T10:27:30.948Z,4.27
2023-02-03T10:30:03.389Z,4.07
2023-02-03T10:32:31.620Z,3.30
2023-02-03T10:34:59.808Z,3.17
2023-02-03T10:37:30.457Z,3.40
2023-02-03T10:39:58.948Z,4.80
2023-02-03T10:42:47.442Z,6.20
2023-02-03T10:45:17.225Z,4.10
2023-02-03T10:47:47.060Z,4.87
2023-02-03T10:50:17.414Z,5.87
2023-02-03T10:52:45.648Z,3.07
2023-02-03T10:55:31.755Z,4.07
2023-02-03T10:58:00.421Z,3.00
2023-02-03T11:00:31.273Z,2.60
2023-02-03T11:03:02.331Z,2.40
2023-02-03T11:05:30.617Z,2.37
2023-02-03T11:07:59.089Z,3.40
2023-02-03T11:10:29.134Z,2.77
2023-02-03T11:13:14.345Z,1.90
2023-02-03T11:15:54.791Z,2.20
2023-02-03T11:18:41.136Z,3.63
2023-02-03T11:21:11.180Z,4.10
2023-02-03T11:23:40.318Z,1.43
2023-02-03T11:26:14.385Z,1.60
2023-02-03T11:28:44.225Z,1.70
2023-02-03T11:31:21.476Z,4.20
2023-02-03T11:33:51.321Z,1.43
2023-02-03T11:36:20.128Z,2.67
2023-02-03T11:38:48.333Z,1.60
2023-02-03T11:41:21.397Z,1.70
2023-02-03T11:43:51.193Z,1.60
2023-02-03T11:46:20.815Z,1.10
2023-02-03T11:48:59.121Z,1.40
2023-02-03T11:51:31.372Z,1.17
2023-02-03T11:54:04.837Z,1.73
2023-02-03T11:56:36.987Z,1.60
2023-02-03T11:59:27.397Z,1.50
2023-02-03T12:02:43.556Z,1.60
2023-02-03T12:05:23.438Z,1.80
2023-02-03T12:07:58.241Z,1.50
2023-02-03T12:10:32.603Z,1.73
2023-02-03T12:13:03.232Z,1.43
2023-02-03T12:15:50.283Z,1.57
2023-02-03T12:18:25.578Z,4.87
2023-02-03T12:21:01.931Z,2.17
2023-02-03T12:23:36.092Z,1.67
2023-02-03T12:26:14.765Z,3.40
2023-02-03T12:28:47.262Z,1.60
2023-02-03T12:31:17.702Z,1.60
2023-02-03T12:33:47.763Z,1.73
2023-02-03T12:36:20.043Z,2.77
2023-02-03T12:38:52.111Z,1.63
2023-02-03T12:41:22.262Z,1.43
2023-02-03T12:43:52.665Z,1.20
2023-02-03T12:46:22.390Z,2.33
2023-02-03T12:48:53.400Z,1.43
2023-02-03T12:51:29.946Z,2.40
2023-02-03T12:54:00.381Z,1.50
2023-02-03T12:56:31.162Z,1.50
2023-02-03T12:59:01.774Z,2.23
2023-02-03T13:01:32.460Z,1.67
2023-02-03T13:04:03.491Z,3.17
2023-02-03T13:06:35.241Z,1.80
2023-02-03T13:09:05.118Z,2.83
2023-02-03T13:11:36.337Z,1.50
2023-02-03T13:14:07.376Z,1.50
2023-02-03T13:16:37.190Z,3.07
2023-02-03T13:19:08.272Z,2.83
2023-02-03T13:21:37.896Z,3.57
2023-02-03T13:24:06.892Z,1.57
2023-02-03T13:26:58.069Z,1.80
2023-02-03T13:29:53.935Z,1.63
2023-02-03T13:32:30.826Z,2.00
2023-02-03T13:35:33.151Z,2.77
2023-02-03T13:38:17.611Z,1.80
2023-02-03T13:40:52.883Z,1.90
2023-02-03T13:43:37.352Z,1.97
2023-02-03T13:46:09.109Z,2.07
2023-02-03T13:48:37.919Z,2.03
2023-02-03T13:51:08.210Z,1.90
2023-02-03T13:53:39.098Z,2.20
2023-02-03T13:56:08.000Z,1.60
2023-02-03T13:58:37.212Z,3.60
2023-02-03T14:01:33.562Z,2.80
2023-02-03T14:04:02.215Z,2.87
2023-02-03T14:07:03.993Z,3.60
2023-02-03T14:09:41.440Z,3.37
2023-02-03T14:12:43.321Z,1.60
2023-02-03T14:15:33.743Z,2.10
2023-02-03T14:18:08.043Z,2.30
2023-02-03T14:21:20.717Z,2.30
2023-02-03T14:23:59.537Z,3.97
2023-02-03T14:26:41.422Z,2.27
2023-02-03T14:29:10.922Z,2.53
2023-02-03T14:31:59.496Z,2.10
2023-02-03T14:34:38.257Z,3.13
2023-02-03T14:37:30.487Z,4.57
2023-02-03T14:40:18.561Z,5.87
2023-02-03T14:43:14.694Z,5.03
2023-02-03T14:46:06.410Z,4.27
2023-02-03T14:48:52.081Z,9.53
2023-02-03T14:51:26.906Z,9.03
2023-02-03T14:54:02.483Z,8.67
2023-02-03T14:56:58.148Z,13.20
2023-02-03T14:59:29.564Z,10.80
2023-02-03T15:02:16.052Z,11.70
2023-02-03T15:04:45.728Z,12.00
2023-02-03T15:07:35.905Z,12.77
2023-02-03T15:10:04.723Z,10.73
2023-02-03T15:12:37.677Z,10.37
2023-02-03T15:15:31.883Z,7.80
2023-02-03T15:18:01.169Z,13.33
2023-02-03T15:20:37.023Z,12.73
2023-02-03T15:23:19.649Z,12.93
2023-02-03T15:25:48.292Z,12.70
2023-02-03T15:28:20.809Z,13.97
2023-02-03T15:30:50.743Z,15.33
2023-02-03T15:33:21.034Z,11.40
2023-02-03T15:35:50.327Z,10.30
2023-02-03T15:38:20.583Z,10.47
2023-02-03T15:40:49.674Z,14.10
2023-02-03T15:43:19.171Z,14.23
2023-02-03T15:45:57.532Z,10.70
2023-02-03T15:48:30.248Z,10.07
2023-02-03T15:51:00.660Z,5.70
2023-02-03T15:53:45.294Z,12.40
2023-02-03T15:56:24.226Z,14.27
2023-02-03T15:58:52.434Z,11.63
2023-02-03T16:01:26.227Z,13.80
2023-02-03T16:03:55.454Z,11.50
2023-02-03T16:06:27.476Z,13.73
2023-02-03T16:08:57.628Z,14.53
2023-02-03T16:11:31.167Z,15.43
2023-02-03T16:14:00.904Z,20.20
2023-02-03T16:16:31.899Z,15.13
2023-02-03T16:19:01.719Z,11.47
2023-02-03T16:21:31.965Z,17.60
2023-02-03T16:24:00.209Z,17.03
2023-02-03T16:26:31.098Z,14.03
2023-02-03T16:29:31.179Z,18.10
2023-02-03T16:32:18.227Z,11.33
2023-02-03T16:35:03.549Z,15.10
2023-02-03T16:37:50.452Z,20.30
2023-02-03T16:40:37.820Z,16.33
2023-02-03T16:43:23.835Z,14.57
2023-02-03T16:46:12.197Z,15.43
2023-02-03T16:48:59.634Z,17.20
2023-02-03T16:51:28.378Z,13.00
2023-02-03T16:53:57.808Z,14.83
2023-02-03T16:56:26.011Z,22.20
2023-02-03T16:58:56.131Z,16.70
2023-02-03T17:01:25.048Z,13.07
2023-02-03T17:03:54.596Z,17.93
2023-02-03T17:06:22.805Z,15.00
2023-02-03T17:08:50.997Z,17.13
2023-02-03T17:11:20.051Z,17.53
2023-02-03T17:13:48.818Z,12.03
2023-02-03T17:16:18.488Z,13.50
2023-02-03T17:18:47.026Z,15.33
2023-02-03T17:21:18.065Z,13.10
2023-02-03T17:23:46.324Z,14.83
2023-02-03T17:26:14.755Z,17.97
2023-02-03T17:28:43.366Z,17.67
2023-02-03T17:31:14.055Z,12.83
2023-02-03T17:33:42.271Z,9.00
2023-02-03T17:36:11.999Z,12.87
2023-02-03T17:55:19.934Z,12.73
2023-02-03T17:57:48.114Z,15.00
2023-02-03T18:00:16.975Z,10.97
2023-02-03T18:02:45.209Z,11.30
2023-02-03T18:05:13.387Z,19.83
2023-02-03T18:07:42.067Z,14.67
2023-02-03T18:10:10.640Z,12.30
2023-02-03T18:12:40.192Z,15.37
2023-02-03T18:15:08.980Z,18.10
2023-02-03T18:17:37.145Z,13.37
2023-02-03T18:20:14.007Z,11.63
2023-02-03T18:22:50.000Z,16.63
2023-02-03T18:25:18.932Z,12.80
2023-02-03T18:27:48.473Z,9.47
2023-02-03T18:30:18.302Z,24.23
2023-02-03T18:32:47.170Z,14.00
2023-02-03T18:35:17.272Z,13.23
2023-02-03T18:37:45.521Z,16.83
2023-02-03T18:40:13.721Z,12.50
2023-02-03T18:42:41.872Z,13.73
2023-02-03T18:45:12.718Z,16.80
2023-02-03T18:47:41.033Z,10.50
2023-02-03T18:50:09.977Z,15.70
2023-02-03T18:52:38.130Z,15.33
2023-02-03T18:55:06.776Z,20.90
2023-02-03T18:57:34.941Z,12.20
2023-02-03T19:00:03.638Z,12.30
2023-02-03T19:02:33.541Z,16.93
2023-02-03T19:05:01.753Z,16.57
2023-02-03T19:07:29.943Z,8.80
2023-02-03T19:09:58.259Z,12.80
2023-02-03T19:12:27.662Z,16.00
2023-02-03T19:14:55.857Z,11.17
2023-02-03T19:17:24.344Z,15.23
2023-02-03T19:19:53.937Z,15.47
2023-02-03T19:22:22.779Z,16.07
2023-02-03T19:24:51.347Z,13.10
2023-02-03T19:27:19.523Z,12.90
2023-02-03T19:29:47.732Z,14.97
2023-02-03T19:32:16.280Z,18.10
2023-02-03T19:34:44.469Z,12.97
2023-02-03T19:37:14.032Z,14.80
2023-02-03T19:39:42.372Z,19.20
2023-02-03T19:42:11.777Z,15.40
2023-02-03T19:44:40.309Z,15.40
2023-02-03T19:47:08.506Z,10.33
2023-02-03T19:49:36.720Z,14.17
2023-02-03T19:52:09.049Z,13.63
2023-02-03T19:54:38.646Z,11.77
2023-02-03T19:57:06.877Z,17.80
2023-02-03T19:59:35.512Z,18.83
2023-02-03T20:02:13.718Z,15.33
2023-02-03T20:04:42.462Z,14.80
2023-02-03T20:07:10.777Z,19.00
2023-02-03T20:09:40.371Z,9.70
2023-02-03T20:12:08.674Z,15.70
2023-02-03T20:14:36.855Z,14.57
2023-02-03T20:17:06.476Z,10.73
2023-02-03T20:19:34.898Z,13.27
2023-02-03T20:22:03.070Z,11.53
2023-02-03T20:24:31.222Z,12.73
2023-02-03T20:27:01.047Z,11.97
2023-02-03T20:29:29.225Z,7.73
2023-02-03T20:31:58.771Z,15.03
2023-02-03T20:34:28.507Z,16.10
2023-02-03T20:36:58.575Z,10.30
2023-02-03T20:39:27.072Z,12.23
2023-02-03T20:41:55.238Z,16.37
2023-02-03T20:44:24.855Z,11.30
2023-02-03T20:46:53.561Z,8.97
2023-02-03T20:49:21.791Z,12.50
2023-02-03T20:51:49.999Z,11.83
2023-02-03T20:54:20.114Z,11.90
2023-02-03T20:56:48.521Z,13.73
2023-02-03T20:59:17.840Z,14.47
2023-02-03T21:01:47.622Z,10.27
2023-02-03T21:04:34.181Z,9.53
2023-02-03T21:07:02.475Z,11.27
2023-02-03T21:09:30.927Z,12.37
2023-02-03T21:11:59.114Z,12.37
2023-02-03T21:14:28.390Z,13.93
2023-02-03T21:16:57.970Z,13.83
2023-02-03T21:19:29.361Z,10.17
2023-02-03T21:21:57.807Z,15.20
2023-02-03T21:24:28.262Z,11.73
2023-02-03T21:26:56.705Z,12.70
2023-02-03T21:29:26.848Z,10.40
2023-02-03T21:31:55.316Z,14.50
2023-02-03T21:34:28.995Z,13.17
2023-02-03T21:36:57.298Z,15.17
2023-02-03T21:39:27.638Z,12.33
2023-02-03T21:41:55.946Z,16.70
2023-02-03T21:44:28.346Z,13.33
2023-02-03T21:46:56.486Z,11.37
2023-02-03T21:49:25.000Z,13.50
2023-02-03T21:51:54.602Z,13.57
2023-02-03T21:54:28.065Z,18.57
2023-02-03T21:56:56.300Z,8.97
2023-02-03T21:59:26.217Z,15.93
2023-02-03T22:01:54.377Z,11.63
2023-02-03T22:04:22.798Z,13.37
2023-02-03T22:06:53.877Z,14.00
2023-02-03T22:09:24.249Z,14.57
2023-02-03T22:11:52.452Z,11.07
2023-02-03T22:14:21.813Z,7.00
2023-02-03T22:16:50.405Z,9.40
2023-02-03T22:19:18.558Z,9.60
2023-02-03T22:21:48.586Z,14.23
2023-02-03T22:24:16.777Z,14.43
2023-02-03T22:26:46.349Z,10.33
2023-02-03T22:29:14.777Z,12.97
2023-02-03T22:31:43.352Z,13.53
2023-02-03T22:34:11.580Z,10.37
2023-02-03T22:36:39.745Z,8.53
2023-02-03T22:39:07.866Z,9.77
2023-02-03T22:41:36.304Z,9.23
2023-02-03T22:44:06.093Z,10.70
2023-02-03T22:46:34.285Z,9.33
2023-02-03T22:49:02.370Z,14.70
2023-02-03T22:51:30.562Z,13.50
2023-02-03T22:53:58.743Z,12.10
2023-02-03T22:56:27.222Z,9.93
2023-02-03T22:58:55.371Z,9.53
2023-02-03T23:01:24.991Z,6.13
2023-02-03T23:03:53.104Z,8.20
2023-02-03T23:06:21.305Z,8.40
2023-02-03T23:08:49.721Z,14.93
2023-02-03T23:11:17.944Z,9.50
2023-02-03T23:13:46.072Z,13.20
2023-02-03T23:16:14.843Z,11.57
2023-02-03T23:18:44.479Z,9.37
2023-02-03T23:21:12.945Z,9.50
2023-02-03T23:23:41.437Z,7.47
2023-02-03T23:26:09.615Z,7.60
2023-02-03T23:28:37.769Z,7.70
2023-02-03T23:31:06.222Z,8.80
2023-02-03T23:33:34.441Z,7.77
2023-02-03T23:36:03.316Z,7.57
2023-02-03T23:38:33.408Z,12.20
2023-02-03T23:41:01.506Z,11.63
2023-02-03T23:43:29.777Z,12.13
2023-02-03T23:45:57.950Z,11.10
2023-02-03T23:48:26.466Z,10.00
2023-02-03T23:50:54.622Z,10.90
2023-02-03T23:53:24.199Z,13.47
2023-02-03T23:55:52.387Z,9.77
2023-02-03T23:58:20.555Z,10.50
